McCartys, New Mexico
Current Conditions -  °F | °C
As of 8:37 PM on Friday 28 Nov 2014 (Local Time) from KGNT Reporting Station
Clear Clear  
Wind Chill: 27°   Ceiling: Unl
Heat Index: 27°   Visibility: 10mi
Dew Point: -2°   Wind: 0mph
Humidity: 29%   Direction: NA
Pressure: 30.14"   Gusts: NA
Location:  35.0816°N, 107.597°W
Report Text: KGNT 290337Z AUTO 00000KT 10SM CLR M03/M19 A3014 RMK AO2
Loading
Personal Weather Stations






























Interactive Weather Map New forecast layout! Learn more

10-Day Weather Forecast

Advertisements
Track Severe Weather on mobile